createdAt,value
2018-08-22T00:01:50.389Z,68.21
2018-08-22T00:04:19.146Z,68.73
2018-08-22T00:06:47.923Z,68.85
2018-08-22T00:09:16.711Z,68.28
2018-08-22T00:11:45.466Z,68.81
2018-08-22T00:14:14.260Z,68.29
2018-08-22T00:16:43.172Z,69.23
2018-08-22T00:19:12.000Z,68.22
2018-08-22T00:21:40.744Z,68.76
2018-08-22T00:24:09.539Z,68.50
2018-08-22T00:26:38.337Z,69.26
2018-08-22T00:29:07.216Z,68.95
2018-08-22T00:31:36.194Z,69.56
2018-08-22T00:34:05.040Z,69.42
2018-08-22T00:36:33.882Z,69.73
2018-08-22T00:39:02.751Z,69.94
2018-08-22T00:41:31.514Z,69.13
2018-08-22T00:44:00.292Z,68.99
2018-08-22T00:46:29.154Z,69.01
2018-08-22T00:48:57.895Z,69.20
2018-08-22T00:51:26.677Z,68.34
2018-08-22T00:53:55.433Z,68.64
2018-08-22T00:56:24.231Z,69.31
2018-08-22T00:58:53.050Z,68.76
2018-08-22T01:01:21.834Z,68.49
2018-08-22T01:03:50.629Z,69.01
2018-08-22T01:06:19.468Z,68.64
2018-08-22T01:08:48.281Z,69.21
2018-08-22T01:11:17.447Z,69.15
2018-08-22T01:13:46.208Z,69.06
2018-08-22T01:16:14.986Z,67.99
2018-08-22T01:18:43.791Z,67.91
2018-08-22T01:21:12.619Z,67.87
2018-08-22T01:23:41.407Z,67.59
2018-08-22T01:26:10.355Z,67.05
2018-08-22T01:28:39.196Z,66.96
2018-08-22T01:31:07.942Z,67.15
2018-08-22T01:33:36.731Z,67.88
2018-08-22T01:36:05.621Z,67.41
2018-08-22T01:38:34.384Z,68.25
2018-08-22T01:41:03.185Z,68.76
2018-08-22T01:43:31.940Z,68.71
2018-08-22T01:46:00.775Z,67.60
2018-08-22T01:48:29.567Z,67.83
2018-08-22T01:50:58.343Z,68.43
2018-08-22T01:53:27.146Z,68.38
2018-08-22T01:55:55.961Z,68.51
2018-08-22T01:58:24.743Z,67.99
2018-08-22T02:00:53.523Z,68.91
2018-08-22T02:03:22.477Z,68.45
2018-08-22T02:05:51.267Z,69.29
2018-08-22T02:08:20.085Z,68.27
2018-08-22T02:10:48.895Z,68.05
2018-08-22T02:13:17.650Z,69.03
2018-08-22T02:15:46.411Z,68.22
2018-08-22T02:18:15.238Z,69.10
2018-08-22T02:20:43.974Z,68.85
2018-08-22T02:23:12.729Z,68.89
2018-08-22T02:25:41.506Z,68.73
2018-08-22T02:28:10.315Z,68.24
2018-08-22T02:30:39.101Z,69.36
2018-08-22T02:33:07.967Z,69.24
2018-08-22T02:35:36.739Z,68.99
2018-08-22T02:38:05.602Z,69.21
2018-08-22T02:40:34.825Z,69.60
2018-08-22T02:43:03.578Z,69.41
2018-08-22T02:45:32.350Z,69.21
2018-08-22T02:48:01.179Z,69.34
2018-08-22T02:50:29.946Z,69.30
2018-08-22T02:52:58.708Z,69.84
2018-08-22T02:55:27.497Z,69.29
2018-08-22T02:57:56.294Z,69.12
2018-08-22T03:00:25.107Z,69.83
2018-08-22T03:02:53.874Z,68.99
2018-08-22T03:05:22.674Z,69.57
2018-08-22T03:07:51.467Z,69.95
2018-08-22T03:10:20.251Z,69.87
2018-08-22T03:12:49.019Z,70.03
2018-08-22T03:15:17.783Z,70.18
2018-08-22T03:17:46.555Z,69.67
2018-08-22T03:20:15.342Z,70.32
2018-08-22T03:22:44.167Z,70.64
2018-08-22T03:25:12.931Z,69.92
2018-08-22T03:27:41.714Z,70.74
2018-08-22T03:30:10.650Z,71.25
2018-08-22T03:32:39.416Z,70.38
2018-08-22T03:35:08.304Z,70.75
2018-08-22T03:37:37.134Z,71.01
2018-08-22T03:40:05.958Z,70.87
2018-08-22T03:42:34.693Z,71.24
2018-08-22T03:45:03.487Z,70.81
2018-08-22T03:47:32.265Z,70.75
2018-08-22T03:50:01.054Z,71.55
2018-08-22T03:52:29.858Z,71.28
2018-08-22T03:54:58.709Z,70.97
2018-08-22T03:57:27.486Z,71.63
2018-08-22T03:59:56.262Z,70.74
2018-08-22T04:02:25.105Z,70.64
2018-08-22T04:04:53.906Z,71.39
2018-08-22T04:07:22.705Z,71.26
2018-08-22T04:09:51.498Z,70.79
2018-08-22T04:12:20.352Z,70.61
2018-08-22T04:14:49.228Z,70.82
2018-08-22T04:17:18.032Z,70.94
2018-08-22T04:19:46.842Z,70.48
2018-08-22T04:22:15.727Z,69.07
2018-08-22T04:24:44.497Z,68.85
2018-08-22T04:27:13.313Z,68.90
2018-08-22T04:29:42.125Z,67.05
2018-08-22T04:32:10.915Z,66.15
2018-08-22T04:34:39.655Z,65.21
2018-08-22T04:37:08.462Z,63.38
2018-08-22T04:39:37.260Z,62.26
2018-08-22T04:42:06.177Z,60.62
2018-08-22T04:44:34.926Z,58.50
2018-08-22T04:47:03.795Z,57.50
2018-08-22T04:49:32.608Z,56.50
2018-08-22T04:52:01.589Z,56.55
2018-08-22T04:54:30.357Z,55.20
2018-08-22T04:56:59.218Z,55.21
2018-08-22T04:59:28.029Z,54.68
2018-08-22T05:01:56.823Z,55.50
2018-08-22T05:04:25.598Z,55.67
2018-08-22T05:06:54.490Z,55.47
2018-08-22T05:09:23.310Z,54.69
2018-08-22T05:11:52.235Z,55.67
2018-08-22T05:14:21.002Z,55.75
2018-08-22T05:16:49.815Z,56.88
2018-08-22T05:19:18.639Z,57.13
2018-08-22T05:21:47.535Z,58.08
2018-08-22T05:24:16.337Z,58.07
2018-08-22T05:26:45.242Z,58.25
2018-08-22T05:29:14.026Z,58.06
2018-08-22T05:31:42.872Z,58.44
2018-08-22T05:34:11.699Z,58.21
2018-08-22T05:36:40.478Z,58.60
2018-08-22T05:39:11.505Z,58.22
2018-08-22T05:41:40.546Z,58.33
2018-08-22T05:44:09.391Z,58.88
2018-08-22T05:46:38.168Z,58.07
2018-08-22T05:49:06.996Z,59.61
2018-08-22T05:51:35.794Z,59.68
2018-08-22T05:54:04.598Z,58.63
2018-08-22T05:56:33.422Z,57.41
2018-08-22T05:59:02.240Z,57.72
2018-08-22T06:01:31.101Z,57.95
2018-08-22T06:03:59.895Z,57.96
2018-08-22T06:06:28.736Z,58.21
2018-08-22T06:08:57.590Z,56.97
2018-08-22T06:11:26.657Z,57.02
2018-08-22T06:13:55.548Z,57.71
2018-08-22T06:16:24.355Z,57.89
2018-08-22T06:18:53.195Z,58.14
2018-08-22T06:21:22.044Z,57.99
2018-08-22T06:23:50.908Z,57.07
2018-08-22T06:26:19.674Z,57.23
2018-08-22T06:28:48.531Z,56.24
2018-08-22T06:31:17.545Z,56.80
2018-08-22T06:33:46.481Z,56.18
2018-08-22T06:36:15.405Z,56.68
2018-08-22T06:38:44.342Z,55.98
2018-08-22T06:41:13.168Z,56.68
2018-08-22T06:43:41.971Z,56.38
2018-08-22T06:46:10.760Z,55.63
2018-08-22T06:48:39.580Z,55.55
2018-08-22T06:51:08.364Z,55.95
2018-08-22T06:53:37.371Z,55.75
2018-08-22T06:56:06.210Z,55.78
2018-08-22T06:58:35.094Z,55.05
2018-08-22T07:01:03.966Z,55.48
2018-08-22T07:03:33.053Z,55.86
2018-08-22T07:06:01.832Z,54.42
2018-08-22T07:08:30.618Z,54.43
2018-08-22T07:10:59.411Z,54.22
2018-08-22T07:13:28.307Z,53.84
2018-08-22T07:15:57.223Z,54.41
2018-08-22T07:18:26.202Z,53.38
2018-08-22T07:21:24.203Z,53.77
2018-08-22T07:24:23.111Z,53.44
2018-08-22T07:27:21.187Z,53.09
2018-08-22T07:30:20.067Z,52.45
2018-08-22T07:33:19.941Z,53.16
2018-08-22T07:36:17.789Z,52.35
2018-08-22T07:39:17.659Z,52.41
2018-08-22T07:42:16.647Z,53.11
2018-08-22T07:45:15.634Z,52.07
2018-08-22T07:47:44.425Z,51.68
2018-08-22T07:50:13.293Z,52.10
2018-08-22T07:53:05.068Z,51.88
2018-08-22T07:55:39.358Z,51.41
2018-08-22T07:58:08.163Z,51.70
2018-08-22T08:00:37.039Z,50.98
2018-08-22T08:03:06.274Z,51.53
2018-08-22T08:05:35.175Z,50.96
2018-08-22T08:08:04.096Z,50.83
2018-08-22T08:10:34.880Z,51.29
2018-08-22T08:13:04.583Z,50.44
2018-08-22T08:15:33.417Z,50.21
2018-08-22T08:18:02.199Z,49.49
2018-08-22T08:20:30.989Z,50.28
2018-08-22T08:22:59.832Z,50.42
2018-08-22T08:25:28.663Z,49.55
2018-08-22T08:27:57.505Z,49.87
2018-08-22T08:30:26.377Z,49.50
2018-08-22T08:32:55.428Z,49.47
2018-08-22T08:35:24.166Z,48.05
2018-08-22T08:37:52.968Z,45.67
2018-08-22T08:40:21.733Z,44.59
2018-08-22T08:42:50.630Z,44.29
2018-08-22T08:45:19.487Z,45.55
2018-08-22T08:47:48.245Z,43.35
2018-08-22T08:50:17.321Z,44.10
2018-08-22T08:52:46.192Z,43.43
2018-08-22T08:55:15.018Z,42.69
2018-08-22T08:57:43.949Z,43.10
2018-08-22T09:00:12.830Z,42.35
2018-08-22T09:02:41.607Z,42.00
2018-08-22T09:05:10.446Z,41.91
2018-08-22T09:07:39.423Z,42.42
2018-08-22T09:10:08.231Z,42.22
2018-08-22T09:12:38.358Z,42.76
2018-08-22T09:15:07.697Z,42.69
2018-08-22T09:17:36.571Z,42.27
2018-08-22T09:20:06.763Z,41.57
2018-08-22T09:22:35.558Z,41.92
2018-08-22T09:25:04.479Z,42.83
2018-08-22T09:27:33.274Z,41.77
2018-08-22T09:30:02.132Z,42.18
2018-08-22T09:32:31.145Z,41.48
2018-08-22T09:35:00.090Z,41.47
2018-08-22T09:37:28.932Z,40.43
2018-08-22T09:39:57.814Z,40.67
2018-08-22T09:42:26.621Z,40.02
2018-08-22T09:44:55.392Z,40.77
2018-08-22T09:47:24.213Z,41.00
2018-08-22T09:49:53.082Z,40.66
2018-08-22T09:52:21.940Z,39.69
2018-08-22T09:54:58.277Z,39.41
2018-08-22T09:57:28.016Z,39.02
2018-08-22T09:59:56.959Z,37.97
2018-08-22T10:02:25.934Z,39.12
2018-08-22T10:04:54.997Z,38.89
2018-08-22T10:07:24.185Z,38.82
2018-08-22T10:09:53.267Z,38.03
2018-08-22T10:12:22.344Z,39.12
2018-08-22T10:14:51.182Z,37.81
2018-08-22T10:17:20.139Z,38.08
2018-08-22T10:19:49.102Z,38.17
2018-08-22T10:22:18.487Z,38.40
2018-08-22T10:24:47.303Z,37.35
2018-08-22T10:27:16.088Z,36.84
2018-08-22T10:29:44.978Z,37.94
2018-08-22T10:32:13.807Z,36.37
2018-08-22T10:34:42.589Z,36.56
2018-08-22T10:37:11.454Z,36.62
2018-08-22T10:39:40.299Z,37.85
2018-08-22T10:42:09.184Z,37.20
2018-08-22T10:44:38.033Z,37.19
2018-08-22T10:47:06.860Z,36.92
2018-08-22T10:49:35.708Z,37.63
2018-08-22T10:52:04.513Z,37.28
2018-08-22T10:54:33.281Z,36.99
2018-08-22T10:57:02.106Z,35.71
2018-08-22T10:59:30.890Z,36.03
2018-08-22T11:01:59.767Z,35.75
2018-08-22T11:04:28.794Z,35.21
2018-08-22T11:06:57.609Z,36.13
2018-08-22T11:09:26.396Z,36.16
2018-08-22T11:11:55.164Z,35.51
2018-08-22T11:14:23.966Z,35.50
2018-08-22T11:16:52.746Z,35.28
2018-08-22T11:19:21.547Z,35.57
2018-08-22T11:22:01.300Z,34.05
2018-08-22T11:24:40.934Z,34.09
2018-08-22T11:27:20.676Z,33.82
2018-08-22T11:30:00.639Z,33.90
2018-08-22T11:32:40.451Z,33.69
2018-08-22T11:35:07.988Z,33.96
2018-08-22T11:37:36.815Z,33.89
2018-08-22T11:40:05.623Z,32.91
2018-08-22T11:42:34.480Z,32.83
2018-08-22T11:45:03.303Z,34.42
2018-08-22T11:47:32.131Z,33.36
2018-08-22T11:50:00.915Z,33.34
2018-08-22T11:52:29.723Z,34.53
2018-08-22T11:54:58.637Z,33.34
2018-08-22T11:57:27.548Z,33.66
2018-08-22T11:59:56.334Z,33.70
2018-08-22T12:02:25.184Z,33.18
2018-08-22T12:04:53.973Z,33.01
2018-08-22T12:07:22.750Z,32.81
2018-08-22T12:09:51.535Z,32.87
2018-08-22T12:12:20.431Z,33.20
2018-08-22T12:14:49.226Z,32.68
2018-08-22T12:17:18.022Z,32.31
2018-08-22T12:19:46.837Z,32.14
2018-08-22T12:22:15.703Z,32.84
2018-08-22T12:24:44.524Z,32.32
2018-08-22T12:27:13.476Z,33.30
2018-08-22T12:29:42.259Z,33.43
2018-08-22T12:32:12.044Z,32.61
2018-08-22T12:34:40.856Z,33.84
2018-08-22T12:37:09.655Z,33.23
2018-08-22T12:39:38.430Z,32.97
2018-08-22T12:42:07.223Z,33.02
2018-08-22T12:44:36.054Z,31.88
2018-08-22T12:47:05.107Z,32.45
2018-08-22T12:49:34.163Z,32.31
2018-08-22T12:52:03.038Z,32.40
2018-08-22T12:54:31.875Z,32.02
2018-08-22T12:57:00.752Z,31.95
2018-08-22T12:59:29.574Z,32.74
2018-08-22T13:01:58.457Z,32.69
2018-08-22T13:04:27.339Z,31.75
2018-08-22T13:06:56.230Z,32.51
2018-08-22T13:09:25.088Z,32.19
2018-08-22T13:11:53.967Z,32.71
2018-08-22T13:14:22.755Z,32.82
2018-08-22T13:16:51.689Z,32.82
2018-08-22T13:19:20.751Z,33.86
2018-08-22T13:21:49.616Z,34.17
2018-08-22T13:24:18.693Z,35.26
2018-08-22T13:26:47.675Z,34.52
2018-08-22T13:29:16.498Z,34.16
2018-08-22T13:31:45.331Z,34.46
2018-08-22T13:34:14.166Z,35.70
2018-08-22T13:36:43.092Z,36.56
2018-08-22T13:39:12.517Z,36.62
2018-08-22T13:41:41.530Z,37.34
2018-08-22T13:44:10.343Z,38.20
2018-08-22T13:46:39.233Z,38.30
2018-08-22T13:49:08.438Z,39.08
2018-08-22T13:51:37.382Z,38.05
2018-08-22T13:54:06.211Z,38.85
2018-08-22T13:56:35.038Z,37.70
2018-08-22T13:59:03.919Z,38.82
2018-08-22T14:01:32.790Z,38.65
2018-08-22T14:04:01.730Z,37.74
2018-08-22T14:06:30.621Z,38.69
2018-08-22T14:08:59.501Z,37.81
2018-08-22T14:11:28.321Z,37.99
2018-08-22T14:13:57.129Z,37.81
2018-08-22T14:16:25.980Z,37.98
2018-08-22T14:18:54.790Z,37.69
2018-08-22T14:21:23.644Z,37.82
2018-08-22T14:23:52.506Z,37.13
2018-08-22T14:26:21.364Z,38.29
2018-08-22T14:28:50.199Z,38.03
2018-08-22T14:31:19.061Z,38.26
2018-08-22T14:33:47.957Z,37.39
2018-08-22T14:36:16.951Z,36.17
2018-08-22T14:38:45.824Z,36.48
2018-08-22T14:41:14.663Z,37.26
2018-08-22T14:43:43.531Z,36.54
2018-08-22T14:46:12.405Z,37.69
2018-08-22T14:48:41.223Z,37.60
2018-08-22T14:51:10.109Z,37.24
2018-08-22T14:53:39.138Z,38.48
2018-08-22T14:56:08.026Z,38.42
2018-08-22T14:58:37.026Z,38.07
2018-08-22T15:01:06.026Z,38.71
2018-08-22T15:03:35.033Z,39.72
2018-08-22T15:06:04.593Z,40.20
2018-08-22T15:08:33.472Z,40.50
2018-08-22T15:11:02.265Z,39.46
2018-08-22T15:13:31.032Z,40.45
2018-08-22T15:15:59.838Z,39.90
2018-08-22T15:18:29.094Z,39.58
2018-08-22T15:20:58.003Z,39.81
2018-08-22T15:23:27.035Z,40.83
2018-08-22T15:25:55.883Z,40.55
2018-08-22T15:28:24.800Z,40.46
2018-08-22T15:30:53.855Z,40.12
2018-08-22T15:33:22.807Z,39.28
2018-08-22T15:35:51.622Z,39.27
2018-08-22T15:38:20.513Z,39.36
2018-08-22T15:40:49.364Z,39.73
2018-08-22T15:43:18.259Z,39.64
2018-08-22T15:45:47.058Z,39.81
2018-08-22T15:48:15.849Z,39.52
2018-08-22T15:50:44.670Z,40.08
2018-08-22T15:53:13.520Z,39.08
2018-08-22T15:55:42.544Z,40.23
2018-08-22T15:58:11.341Z,40.15
2018-08-22T16:00:49.278Z,39.29
2018-08-22T16:03:18.279Z,40.92
2018-08-22T16:05:48.929Z,39.37
2018-08-22T16:08:18.900Z,39.83
2018-08-22T16:10:47.707Z,39.81
2018-08-22T16:13:21.864Z,39.51
2018-08-22T16:15:52.453Z,40.12
2018-08-22T16:18:21.421Z,39.75
2018-08-22T16:21:03.071Z,41.24
2018-08-22T16:23:33.749Z,40.97
2018-08-22T16:26:03.862Z,41.28
2018-08-22T16:28:44.310Z,41.12
2018-08-22T16:31:13.203Z,40.24
2018-08-22T16:34:05.715Z,40.92
2018-08-22T16:36:38.674Z,41.31
2018-08-22T16:39:08.162Z,41.32
2018-08-22T16:41:37.031Z,41.60
2018-08-22T16:44:05.886Z,42.36
2018-08-22T16:46:34.751Z,42.77
2018-08-22T16:49:03.637Z,42.95
2018-08-22T16:51:32.499Z,42.96
2018-08-22T16:54:06.460Z,42.92
2018-08-22T16:56:35.740Z,42.69
2018-08-22T16:59:12.011Z,42.85
2018-08-22T17:01:50.002Z,43.17
2018-08-22T17:04:19.162Z,44.55
2018-08-22T17:06:48.433Z,43.05
2018-08-22T17:09:17.260Z,43.59
2018-08-22T17:11:46.080Z,44.00
2018-08-22T17:14:14.901Z,44.83
2018-08-22T17:16:43.735Z,45.12
2018-08-22T17:19:12.528Z,44.47
2018-08-22T17:21:41.423Z,44.74
2018-08-22T17:24:10.241Z,44.82
2018-08-22T17:26:39.146Z,43.75
2018-08-22T17:29:08.005Z,44.28
2018-08-22T17:31:36.897Z,44.29
2018-08-22T17:34:05.711Z,45.58
2018-08-22T17:36:34.538Z,45.09
2018-08-22T17:39:04.930Z,45.05
2018-08-22T17:41:33.815Z,45.56
2018-08-22T17:44:12.871Z,45.93
2018-08-22T17:46:44.109Z,45.57
2018-08-22T17:49:12.938Z,46.34
2018-08-22T17:52:00.466Z,46.27
2018-08-22T17:54:29.274Z,46.83
2018-08-22T17:57:10.653Z,45.83
2018-08-22T17:59:40.074Z,46.70
2018-08-22T18:02:09.367Z,45.73
2018-08-22T18:04:49.222Z,45.73
2018-08-22T18:07:18.395Z,45.69
2018-08-22T18:09:48.503Z,45.64
2018-08-22T18:12:18.123Z,45.89
2018-08-22T18:14:47.154Z,45.77
2018-08-22T18:17:16.549Z,47.01
2018-08-22T18:19:47.127Z,46.20
2018-08-22T18:22:15.977Z,47.28
2018-08-22T18:24:49.997Z,47.12
2018-08-22T18:27:18.810Z,47.52
2018-08-22T18:29:47.976Z,47.69
2018-08-22T18:32:17.128Z,47.89
2018-08-22T18:35:09.081Z,48.46
2018-08-22T18:37:38.178Z,49.77
2018-08-22T18:40:16.387Z,48.96
2018-08-22T18:42:49.468Z,49.66
2018-08-22T18:45:18.602Z,49.38
2018-08-22T18:47:47.433Z,49.00
2018-08-22T18:50:16.249Z,49.21
2018-08-22T18:52:48.381Z,49.84
2018-08-22T18:55:17.168Z,50.26
2018-08-22T18:57:46.204Z,50.82
2018-08-22T19:00:15.059Z,50.14
2018-08-22T19:02:43.879Z,51.13
2018-08-22T19:05:22.524Z,50.39
2018-08-22T19:08:02.755Z,50.65
2018-08-22T19:10:35.753Z,51.58
2018-08-22T19:13:10.174Z,50.85
2018-08-22T19:15:39.286Z,51.41
2018-08-22T19:18:09.580Z,52.10
2018-08-22T19:20:38.786Z,51.72
2018-08-22T19:23:08.007Z,51.83
2018-08-22T19:25:36.833Z,52.63
2018-08-22T19:28:05.898Z,52.50
2018-08-22T19:30:37.246Z,51.64
2018-08-22T19:33:10.179Z,52.22
2018-08-22T19:35:38.982Z,51.44
2018-08-22T19:38:08.313Z,51.23
2018-08-22T19:40:37.506Z,52.08
2018-08-22T19:43:06.343Z,51.99
2018-08-22T19:45:36.115Z,51.07
2018-08-22T19:48:05.495Z,51.81
2018-08-22T19:50:34.498Z,51.17
2018-08-22T19:53:03.350Z,51.43
2018-08-22T19:55:32.728Z,51.56
2018-08-22T19:58:01.542Z,51.72
2018-08-22T20:00:30.330Z,51.49
2018-08-22T20:02:59.126Z,51.29
2018-08-22T20:05:43.458Z,51.23
2018-08-22T20:08:12.362Z,50.67
2018-08-22T20:10:41.277Z,50.96
2018-08-22T20:13:10.132Z,51.51
2018-08-22T20:15:38.950Z,50.41
2018-08-22T20:18:07.732Z,51.07
2018-08-22T20:20:36.518Z,50.33
2018-08-22T20:23:05.410Z,51.13
2018-08-22T20:25:34.321Z,50.24
2018-08-22T20:28:03.262Z,50.34
2018-08-22T20:30:32.076Z,50.26
2018-08-22T20:33:09.178Z,50.71
2018-08-22T20:35:40.446Z,50.96
2018-08-22T20:38:10.415Z,51.28
2018-08-22T20:40:39.210Z,51.43
2018-08-22T20:43:15.187Z,51.06
2018-08-22T20:45:44.879Z,51.10
2018-08-22T20:48:14.731Z,50.84
2018-08-22T20:50:44.754Z,51.36
2018-08-22T20:53:16.306Z,51.41
2018-08-22T20:55:45.180Z,51.54
2018-08-22T20:58:20.027Z,51.37
2018-08-22T21:00:48.801Z,52.26
2018-08-22T21:03:19.431Z,52.99
2018-08-22T21:05:48.230Z,52.09
2018-08-22T21:08:17.074Z,51.79
2018-08-22T21:10:45.870Z,52.47
2018-08-22T21:13:19.824Z,51.99
2018-08-22T21:15:48.604Z,51.89
2018-08-22T21:18:17.380Z,52.41
2018-08-22T21:20:46.212Z,53.44
2018-08-22T21:23:14.965Z,53.83
2018-08-22T21:25:45.561Z,54.26
2018-08-22T21:28:14.710Z,54.83
2018-08-22T21:30:53.522Z,53.90
2018-08-22T21:33:22.528Z,54.73
2018-08-22T21:35:51.352Z,54.63
2018-08-22T21:38:20.176Z,53.19
2018-08-22T21:40:48.986Z,52.24
2018-08-22T21:43:18.096Z,51.99
2018-08-22T21:45:49.649Z,50.63
2018-08-22T21:48:21.825Z,49.73
2018-08-22T21:50:50.603Z,48.78
2018-08-22T21:53:19.544Z,49.81
2018-08-22T21:55:49.905Z,49.02
2018-08-22T21:58:18.755Z,49.46
2018-08-22T22:00:47.588Z,49.58
2018-08-22T22:03:31.903Z,48.62
2018-08-22T22:06:04.637Z,49.27
2018-08-22T22:08:33.427Z,49.01
2018-08-22T22:11:04.670Z,48.88
2018-08-22T22:13:33.577Z,49.19
2018-08-22T22:16:04.054Z,49.51
2018-08-22T22:18:33.895Z,49.07
2018-08-22T22:21:08.393Z,49.74
2018-08-22T22:23:43.131Z,49.04
2018-08-22T22:26:12.078Z,49.47
2018-08-22T22:28:41.326Z,50.44
2018-08-22T22:31:12.899Z,48.98
2018-08-22T22:33:47.722Z,47.69
2018-08-22T22:36:16.752Z,48.30
2018-08-22T22:38:45.596Z,47.20
2018-08-22T22:41:14.404Z,47.79
2018-08-22T22:43:43.148Z,46.57
2018-08-22T22:46:11.922Z,46.60
2018-08-22T22:48:42.099Z,46.77
2018-08-22T22:51:11.695Z,47.27
2018-08-22T22:53:40.519Z,49.59
2018-08-22T22:56:09.292Z,50.22
2018-08-22T22:58:38.193Z,50.60
2018-08-22T23:01:07.889Z,50.14
2018-08-22T23:03:36.706Z,50.14
2018-08-22T23:06:05.693Z,48.69
2018-08-22T23:08:34.576Z,48.97
2018-08-22T23:11:03.342Z,47.55
2018-08-22T23:13:32.130Z,47.51
2018-08-22T23:16:00.972Z,45.49
2018-08-22T23:18:30.154Z,45.24
2018-08-22T23:21:00.246Z,45.76
2018-08-22T23:23:37.371Z,44.93
2018-08-22T23:26:12.501Z,43.98
2018-08-22T23:28:42.043Z,44.53
2018-08-22T23:31:10.939Z,42.85
2018-08-22T23:33:39.722Z,43.67
2018-08-22T23:36:08.506Z,42.61
2018-08-22T23:38:38.990Z,42.59
2018-08-22T23:41:07.868Z,42.91
2018-08-22T23:43:42.063Z,43.97
2018-08-22T23:46:11.780Z,42.22
2018-08-22T23:48:41.095Z,41.80
2018-08-22T23:51:14.715Z,42.49
2018-08-22T23:53:47.815Z,41.70
2018-08-22T23:56:22.575Z,42.85
2018-08-22T23:58:51.901Z,42.26
